Time;durP1;ratioP1;P1;durP2;ratioP2;P2;SDS_P1;SDS_P2;PMS_P1;PMS_P2;Temp;Humidity;BMP_temperature;BMP_pressure;BME280_temperature;BME280_humidity;BME280_pressure;Samples;Min_cycle;Max_cycle;Signal;HPM_P1;HPM_P2
2021/07/22 00:01:38;;;;;;;13.07;11.10;;;20.60;62.40;;;;;;5076047;28;20464;-73
2021/07/22 00:04:05;;;;;;;11.70;10.17;;;20.60;62.30;;;;;;5076075;28;20440;-74
2021/07/22 00:06:31;;;;;;;12.03;10.77;;;20.50;62.30;;;;;;5075712;28;20854;-73
2021/07/22 00:09:00;;;;;;;13.50;12.23;;;20.50;62.50;;;;;;5075683;28;20829;-74
2021/07/22 00:11:26;;;;;;;15.50;11.83;;;20.50;62.70;;;;;;5075911;28;20471;-73
2021/07/22 00:13:53;;;;;;;12.20;10.90;;;20.40;62.80;;;;;;5075596;28;20961;-74
2021/07/22 00:16:20;;;;;;;12.73;11.23;;;20.40;63.10;;;;;;5075814;28;20510;-74
2021/07/22 00:18:46;;;;;;;17.77;11.03;;;20.40;63.50;;;;;;5075546;28;21037;-74
2021/07/22 00:21:13;;;;;;;13.80;12.27;;;20.40;63.60;;;;;;5075613;28;20470;-74
2021/07/22 00:23:40;;;;;;;17.70;10.87;;;20.40;63.80;;;;;;5075517;28;20425;-73
2021/07/22 00:26:08;;;;;;;13.83;12.10;;;20.40;63.90;;;;;;5075694;28;20436;-73
2021/07/22 00:28:35;;;;;;;14.50;11.53;;;20.30;64.20;;;;;;5075669;28;20445;-73
2021/07/22 00:31:02;;;;;;;12.47;10.90;;;20.30;64.30;;;;;;5075221;28;20974;-73
2021/07/22 00:33:29;;;;;;;12.53;10.97;;;20.30;64.60;;;;;;5078136;28;20440;-74
2021/07/22 00:35:58;;;;;;;14.40;11.30;;;20.20;64.60;;;;;;5079722;28;20476;-74
2021/07/22 00:38:25;;;;;;;16.00;12.20;;;20.20;64.60;;;;;;5075954;28;21005;-73
2021/07/22 00:40:51;;;;;;;15.70;11.00;;;20.20;64.90;;;;;;5075530;28;20465;-73
2021/07/22 00:43:19;;;;;;;18.80;12.70;;;20.20;64.80;;;;;;5075524;28;20445;-73
2021/07/22 00:45:46;;;;;;;13.00;10.77;;;20.20;64.80;;;;;;5075138;28;20930;-73
2021/07/22 00:48:12;;;;;;;11.57;10.43;;;20.20;64.90;;;;;;5075351;28;20449;-73
2021/07/22 00:50:39;;;;;;;10.90;9.80;;;20.20;64.90;;;;;;5075284;28;20539;-73
2021/07/22 00:53:06;;;;;;;15.43;10.43;;;20.20;64.70;;;;;;5074848;28;20506;-73
2021/07/22 00:55:32;;;;;;;11.87;10.63;;;20.10;64.60;;;;;;5075236;28;20449;-73
2021/07/22 00:57:59;;;;;;;17.47;10.77;;;20.10;64.60;;;;;;5074751;28;20460;-73
2021/07/22 01:00:27;;;;;;;10.57;9.47;;;20.10;64.70;;;;;;5074727;28;20988;-73
2021/07/22 01:02:54;;;;;;;11.23;9.60;;;20.00;64.70;;;;;;5074734;28;20956;-73
2021/07/22 01:05:21;;;;;;;14.50;11.67;;;20.00;65.00;;;;;;5074937;28;20451;-73
2021/07/22 01:07:47;;;;;;;11.13;9.67;;;20.00;65.20;;;;;;5074912;28;20451;-73
2021/07/22 01:10:14;;;;;;;13.13;10.23;;;19.90;65.40;;;;;;5074627;28;20965;-73
2021/07/22 01:12:41;;;;;;;12.87;10.23;;;19.80;65.40;;;;;;5074567;28;20922;-73
2021/07/22 01:15:08;;;;;;;10.83;9.30;;;19.80;65.80;;;;;;5074710;28;20448;-73
2021/07/22 01:17:41;;;;;;;10.27;9.27;;;19.80;66.50;;;;;;5074614;28;20503;-73
2021/07/22 01:20:12;;;;;;;12.93;10.33;;;19.80;66.60;;;;;;5074298;28;20919;-73
2021/07/22 01:22:39;;;;;;;17.20;10.73;;;19.70;66.70;;;;;;5074314;28;20457;-73
2021/07/22 01:25:07;;;;;;;14.37;10.63;;;19.80;67.10;;;;;;5074530;28;20455;-73
2021/07/22 01:27:34;;;;;;;13.27;11.33;;;19.80;67.30;;;;;;5074512;28;20513;-73
2021/07/22 01:30:00;;;;;;;11.93;10.60;;;19.70;67.60;;;;;;5074074;28;20949;-73
2021/07/22 01:32:27;;;;;;;12.30;11.03;;;19.80;68.10;;;;;;5074079;28;20957;-73
2021/07/22 01:34:54;;;;;;;13.57;11.70;;;19.80;68.20;;;;;;5074373;28;20836;-73
2021/07/22 01:37:22;;;;;;;16.23;11.90;;;19.70;68.40;;;;;;5074346;28;20534;-73
2021/07/22 01:39:49;;;;;;;13.80;11.03;;;19.70;69.00;;;;;;5074000;28;20824;-73
2021/07/22 01:42:16;;;;;;;16.00;11.97;;;19.70;69.30;;;;;;5074129;28;20464;-73
2021/07/22 01:44:43;;;;;;;15.53;12.00;;;19.70;69.50;;;;;;5074182;28;20449;-73
2021/07/22 01:47:09;;;;;;;16.30;11.63;;;19.70;69.40;;;;;;5074138;28;20421;-73
2021/07/22 01:49:36;;;;;;;14.93;13.43;;;19.60;69.30;;;;;;5074066;28;20448;-73
2021/07/22 01:52:04;;;;;;;19.37;11.97;;;19.70;69.50;;;;;;5073961;28;20461;-73
2021/07/22 01:54:32;;;;;;;20.47;12.87;;;19.70;69.50;;;;;;5074035;28;20452;-73
2021/07/22 01:57:00;;;;;;;14.00;12.50;;;19.70;69.40;;;;;;5073881;28;20473;-73
2021/07/22 01:59:26;;;;;;;14.93;11.17;;;19.70;69.50;;;;;;5073922;28;20445;-73
2021/07/22 02:01:53;;;;;;;17.60;12.40;;;19.70;69.60;;;;;;5073825;28;20472;-73
2021/07/22 02:04:20;;;;;;;13.83;12.00;;;19.60;69.50;;;;;;5073805;28;20445;-73
2021/07/22 02:06:46;;;;;;;18.10;13.07;;;19.60;69.60;;;;;;5072958;28;20942;-73
2021/07/22 02:09:13;;;;;;;18.43;13.10;;;19.60;69.40;;;;;;5073800;28;20449;-73
2021/07/22 02:11:41;;;;;;;18.70;12.90;;;19.60;69.40;;;;;;5073397;28;20461;-73
2021/07/22 02:14:08;;;;;;;15.20;13.60;;;19.60;69.20;;;;;;5073696;28;20785;-73
2021/07/22 02:16:34;;;;;;;14.70;13.10;;;19.60;69.10;;;;;;5073666;28;20484;-73
2021/07/22 02:19:01;;;;;;;19.30;13.87;;;19.60;69.10;;;;;;5073757;28;20444;-74
2021/07/22 02:21:28;;;;;;;20.13;13.40;;;19.60;69.40;;;;;;5073059;28;21013;-73
2021/07/22 02:23:55;;;;;;;19.83;14.10;;;19.50;69.40;;;;;;5073600;28;20445;-73
2021/07/22 02:26:22;;;;;;;21.60;13.23;;;19.50;69.40;;;;;;5073612;28;20440;-73
2021/07/22 02:28:51;;;;;;;17.07;13.53;;;19.50;69.30;;;;;;5073591;28;20436;-73
2021/07/22 02:31:18;;;;;;;21.50;13.27;;;19.50;69.40;;;;;;5073141;28;20468;-73
2021/07/22 02:33:44;;;;;;;22.97;13.67;;;19.50;69.50;;;;;;5073554;28;20440;-73
2021/07/22 02:36:11;;;;;;;18.98;14.57;;;19.50;69.50;;;;;;5072552;28;20442;-73
2021/07/22 02:38:38;;;;;;;23.67;13.47;;;19.40;69.60;;;;;;5073123;28;20690;-73
2021/07/22 02:41:05;;;;;;;23.23;13.50;;;19.40;69.70;;;;;;5073099;28;20989;-73
2021/07/22 02:43:31;;;;;;;22.70;13.10;;;19.40;69.80;;;;;;5073413;28;20443;-73
2021/07/22 02:46:04;;;;;;;17.33;13.03;;;19.40;69.70;;;;;;5073067;28;20976;-73
2021/07/22 02:48:31;;;;;;;16.27;12.50;;;19.40;69.90;;;;;;5073418;28;20425;-73
2021/07/22 02:51:00;;;;;;;16.47;12.63;;;19.30;69.80;;;;;;5073272;28;20463;-73
2021/07/22 02:53:28;;;;;;;17.87;13.60;;;19.30;70.20;;;;;;5073320;28;20451;-73
2021/07/22 02:55:55;;;;;;;22.93;14.10;;;19.30;70.10;;;;;;5073322;28;20498;-73
2021/07/22 02:58:22;;;;;;;20.13;12.80;;;19.30;70.20;;;;;;5073218;28;20530;-73
2021/07/22 03:00:49;;;;;;;16.97;13.20;;;19.30;70.20;;;;;;5073185;28;20464;-73
2021/07/22 03:03:17;;;;;;;18.23;13.03;;;19.20;70.20;;;;;;5073269;28;20812;-73
2021/07/22 03:05:43;;;;;;;24.33;13.03;;;19.20;70.40;;;;;;5072902;28;20448;-73
2021/07/22 03:08:10;;;;;;;18.80;12.70;;;19.20;70.70;;;;;;5073164;28;20440;-73
2021/07/22 03:10:37;;;;;;;12.60;10.50;;;19.10;70.70;;;;;;5073042;28;20477;-73
2021/07/22 03:13:04;;;;;;;14.53;10.20;;;19.10;70.50;;;;;;5073109;28;20449;-73
2021/07/22 03:15:31;;;;;;;18.60;11.20;;;18.90;70.30;;;;;;5073136;28;20452;-73
2021/07/22 03:17:58;;;;;;;13.10;10.80;;;18.90;70.50;;;;;;5076347;28;20467;-73
2021/07/22 03:20:26;;;;;;;14.53;11.53;;;18.90;70.70;;;;;;5076898;28;20468;-73
2021/07/22 03:22:53;;;;;;;16.90;11.23;;;18.90;70.80;;;;;;5076624;28;20453;-74
2021/07/22 03:25:20;;;;;;;15.57;10.87;;;18.90;71.00;;;;;;5076494;28;20805;-73
2021/07/22 03:27:47;;;;;;;16.30;10.97;;;18.80;70.80;;;;;;5076762;28;20451;-73
2021/07/22 03:30:15;;;;;;;17.80;10.90;;;18.90;71.10;;;;;;5076324;28;20930;-73
2021/07/22 03:32:41;;;;;;;20.60;11.60;;;18.90;71.10;;;;;;5076383;28;20946;-73
2021/07/22 03:35:09;;;;;;;16.77;11.60;;;18.90;70.90;;;;;;5076705;28;20467;-73
2021/07/22 03:37:37;;;;;;;14.13;11.10;;;18.90;71.00;;;;;;5076497;28;20567;-73
2021/07/22 03:40:05;;;;;;;18.47;11.93;;;18.90;71.30;;;;;;5076499;28;20542;-73
2021/07/22 03:42:32;;;;;;;20.23;12.30;;;18.90;71.40;;;;;;5076515;28;20509;-73
2021/07/22 03:44:58;;;;;;;21.60;13.17;;;18.90;71.70;;;;;;5076481;28;20432;-73
2021/07/22 03:47:25;;;;;;;16.80;11.80;;;18.80;71.60;;;;;;5076413;28;20440;-73
2021/07/22 03:49:52;;;;;;;15.53;11.27;;;18.90;71.80;;;;;;5076089;28;20894;-73
2021/07/22 03:52:18;;;;;;;20.07;12.47;;;18.80;72.00;;;;;;5076298;28;20464;-73
2021/07/22 03:54:46;;;;;;;17.70;12.10;;;18.80;72.10;;;;;;5076290;28;20441;-73
2021/07/22 03:57:13;;;;;;;17.00;11.70;;;18.80;72.30;;;;;;5076146;28;20530;-73
2021/07/22 03:59:40;;;;;;;19.63;12.20;;;18.80;72.70;;;;;;5075898;28;20479;-73
2021/07/22 04:02:06;;;;;;;21.47;12.73;;;18.80;73.10;;;;;;5076075;28;20471;-73
2021/07/22 04:04:33;;;;;;;16.03;12.53;;;18.90;73.00;;;;;;5076145;28;20444;-73
2021/07/22 04:07:00;;;;;;;20.37;13.00;;;18.90;73.00;;;;;;5076104;28;20444;-73
2021/07/22 04:09:27;;;;;;;18.90;11.83;;;18.90;73.00;;;;;;5076044;28;20436;-73
2021/07/22 04:11:55;;;;;;;21.30;13.27;;;18.90;73.00;;;;;;5075647;28;20878;-73
2021/07/22 04:14:22;;;;;;;19.13;12.10;;;18.90;73.00;;;;;;5075961;28;20449;-73
2021/07/22 04:16:48;;;;;;;16.60;12.83;;;18.90;73.00;;;;;;5075825;28;20441;-73
2021/07/22 04:19:15;;;;;;;17.93;12.70;;;18.90;73.10;;;;;;5075875;28;20444;-73
2021/07/22 04:21:42;;;;;;;14.73;12.60;;;18.90;73.10;;;;;;5075578;28;20484;-73
2021/07/22 04:24:08;;;;;;;23.37;12.23;;;18.90;73.10;;;;;;5075752;28;20436;-73
2021/07/22 04:26:35;;;;;;;18.63;13.50;;;18.90;73.30;;;;;;5075751;28;20451;-73
2021/07/22 04:29:03;;;;;;;21.13;12.83;;;18.90;73.40;;;;;;5074950;28;20441;-74
2021/07/22 04:31:30;;;;;;;29.90;14.63;;;18.90;73.50;;;;;;5075284;28;20831;-74
2021/07/22 04:33:57;;;;;;;24.33;11.90;;;18.90;73.70;;;;;;5075651;28;20429;-73
2021/07/22 04:36:23;;;;;;;20.63;13.10;;;18.90;74.00;;;;;;5075570;28;20448;-73
2021/07/22 04:38:50;;;;;;;19.80;13.90;;;18.80;73.90;;;;;;5075455;28;20476;-73
2021/07/22 04:41:17;;;;;;;18.47;12.20;;;18.90;74.30;;;;;;5075398;28;20468;-73
2021/07/22 04:43:43;;;;;;;20.00;14.30;;;18.90;74.40;;;;;;5075361;28;20448;-73
2021/07/22 04:46:22;;;;;;;21.83;13.70;;;18.90;74.60;;;;;;5076714;28;20451;-74
2021/07/22 04:48:56;;;;;;;32.30;12.90;;;18.90;74.90;;;;;;5077245;28;20427;-76
2021/07/22 04:51:23;;;;;;;19.53;12.40;;;19.00;74.90;;;;;;5076834;28;20467;-76
2021/07/22 04:53:50;;;;;;;18.10;14.03;;;19.00;75.00;;;;;;5075207;28;20444;-76
2021/07/22 04:56:16;;;;;;;24.50;14.83;;;19.00;75.30;;;;;;5075184;28;20452;-76
2021/07/22 04:58:43;;;;;;;21.90;14.50;;;19.10;75.60;;;;;;5075076;28;20480;-76
2021/07/22 05:01:11;;;;;;;23.73;14.80;;;19.10;75.80;;;;;;5074756;28;20838;-76
2021/07/22 05:03:38;;;;;;;19.53;14.40;;;19.20;75.60;;;;;;5074679;28;20449;-76
2021/07/22 05:06:08;;;;;;;17.67;13.60;;;19.20;76.30;;;;;;5074920;28;20451;-76
2021/07/22 05:08:35;;;;;;;24.50;15.10;;;19.20;76.00;;;;;;5075759;28;20482;-76
2021/07/22 05:11:01;;;;;;;32.27;19.23;;;19.30;76.30;;;;;;5074781;28;20465;-76
2021/07/22 05:13:28;;;;;;;30.57;21.50;;;19.30;76.00;;;;;;5074751;28;20449;-76
2021/07/22 05:15:55;;;;;;;24.70;16.97;;;19.40;75.80;;;;;;5074728;28;20445;-76
2021/07/22 05:18:23;;;;;;;27.53;15.90;;;19.50;75.70;;;;;;5074599;28;20469;-76
2021/07/22 05:20:49;;;;;;;27.37;19.67;;;19.50;76.40;;;;;;5074226;28;20934;-76
2021/07/22 05:23:16;;;;;;;34.73;22.20;;;19.60;76.70;;;;;;5074131;28;20464;-76
2021/07/22 05:25:43;;;;;;;31.30;20.50;;;19.60;74.30;;;;;;5074543;28;20453;-76
2021/07/22 05:28:09;;;;;;;28.43;22.67;;;19.60;73.40;;;;;;5074157;28;20433;-76
2021/07/22 05:30:36;;;;;;;24.83;20.27;;;19.70;73.00;;;;;;5074379;28;20469;-76
2021/07/22 05:33:05;;;;;;;26.90;19.60;;;19.70;73.30;;;;;;5074359;28;20449;-76
2021/07/22 05:35:33;;;;;;;26.70;21.90;;;19.80;73.30;;;;;;5074361;28;20455;-75
2021/07/22 05:38:00;;;;;;;30.13;21.50;;;19.80;72.90;;;;;;5074255;28;20464;-76
2021/07/22 05:40:27;;;;;;;31.00;22.63;;;19.90;72.70;;;;;;5072929;28;20460;-76
2021/07/22 05:42:54;;;;;;;34.10;22.03;;;20.00;73.20;;;;;;5074192;28;20448;-75
2021/07/22 05:45:21;;;;;;;35.80;22.50;;;20.00;73.30;;;;;;5074160;28;20451;-76
2021/07/22 05:47:48;;;;;;;33.00;22.20;;;20.10;73.00;;;;;;5074634;28;20437;-76
2021/07/22 05:50:15;;;;;;;29.03;21.03;;;20.10;73.00;;;;;;5073987;28;20444;-76
2021/07/22 05:52:43;;;;;;;24.73;18.60;;;20.20;72.80;;;;;;5074009;28;20502;-76
2021/07/22 05:55:10;;;;;;;35.77;20.97;;;20.30;73.00;;;;;;5073646;28;20440;-76
2021/07/22 05:57:37;;;;;;;37.97;21.97;;;20.30;72.90;;;;;;5073596;28;20476;-76
2021/07/22 06:00:05;;;;;;;32.77;21.20;;;20.40;72.20;;;;;;5073532;28;20449;-76
2021/07/22 06:02:31;;;;;;;32.00;18.70;;;20.40;71.80;;;;;;5073844;28;20448;-75
2021/07/22 06:05:00;;;;;;;34.47;20.47;;;20.50;71.90;;;;;;5073850;28;20449;-75
2021/07/22 06:07:27;;;;;;;33.87;21.27;;;20.60;71.40;;;;;;5073811;28;20453;-76
2021/07/22 06:09:55;;;;;;;36.77;22.93;;;20.70;71.70;;;;;;5073513;28;20946;-76
2021/07/22 06:12:22;;;;;;;32.10;19.90;;;20.80;72.10;;;;;;5073832;28;20436;-76
2021/07/22 06:14:48;;;;;;;35.67;21.50;;;20.80;71.40;;;;;;5073708;28;20802;-76
2021/07/22 06:17:15;;;;;;;38.30;24.33;;;20.90;71.90;;;;;;5073731;28;20433;-76
2021/07/22 06:19:42;;;;;;;33.93;23.90;;;20.90;71.70;;;;;;5073279;28;20986;-75
2021/07/22 06:22:08;;;;;;;37.47;24.80;;;21.00;72.30;;;;;;5073331;28;20495;-76
2021/07/22 06:24:35;;;;;;;35.47;23.03;;;21.10;71.60;;;;;;5073616;28;20463;-76
2021/07/22 06:27:03;;;;;;;37.10;26.60;;;21.10;70.70;;;;;;5073968;28;20440;-76
2021/07/22 06:29:30;;;;;;;33.40;24.23;;;21.20;69.80;;;;;;5073347;28;20934;-76
2021/07/22 06:31:57;;;;;;;37.93;23.70;;;21.30;70.20;;;;;;5073499;28;20464;-76
2021/07/22 06:34:23;;;;;;;36.70;24.90;;;21.30;71.00;;;;;;5073566;28;20440;-76
2021/07/22 06:36:50;;;;;;;31.50;23.60;;;21.40;71.00;;;;;;5073532;28;20494;-76
2021/07/22 06:39:17;;;;;;;38.47;25.70;;;21.50;70.10;;;;;;5073131;28;20464;-76
2021/07/22 06:41:44;;;;;;;36.07;25.00;;;21.60;69.60;;;;;;5073378;28;20873;-76
2021/07/22 06:44:12;;;;;;;35.13;26.00;;;21.60;68.60;;;;;;5073504;28;20444;-76
2021/07/22 06:46:38;;;;;;;34.10;24.23;;;21.70;69.00;;;;;;5073113;28;20957;-77
2021/07/22 06:49:05;;;;;;;36.10;23.87;;;21.70;68.00;;;;;;5073428;28;20447;-76
2021/07/22 06:51:32;;;;;;;31.70;22.07;;;21.80;67.80;;;;;;5074309;28;20468;-75
2021/07/22 06:53:58;;;;;;;34.13;22.67;;;21.90;67.90;;;;;;5077120;28;20804;-76
2021/07/22 06:56:25;;;;;;;38.63;24.20;;;22.00;67.50;;;;;;5077111;28;20820;-76
2021/07/22 06:58:52;;;;;;;27.87;19.17;;;22.00;66.70;;;;;;5077004;28;20970;-76
2021/07/22 07:01:20;;;;;;;31.77;22.53;;;22.20;66.70;;;;;;5077348;28;20479;-76
2021/07/22 07:03:46;;;;;;;31.50;23.07;;;22.30;66.20;;;;;;5077314;28;20452;-76
2021/07/22 07:06:13;;;;;;;37.97;23.20;;;22.30;64.50;;;;;;5077256;28;20444;-76
2021/07/22 07:08:40;;;;;;;33.97;22.03;;;22.40;64.10;;;;;;5077202;28;20421;-76
2021/07/22 07:11:08;;;;;;;30.93;22.97;;;22.50;64.80;;;;;;5077076;28;20460;-76
2021/07/22 07:13:35;;;;;;;33.50;22.63;;;22.60;63.80;;;;;;5076856;28;20444;-76
2021/07/22 07:16:05;;;;;;;27.80;21.80;;;22.70;63.80;;;;;;5077076;28;20433;-76
2021/07/22 07:18:33;;;;;;;28.50;21.50;;;22.80;62.00;;;;;;5076927;28;20519;-76
2021/07/22 07:21:03;;;;;;;30.43;21.37;;;22.90;61.60;;;;;;5076894;28;20472;-76
2021/07/22 07:23:29;;;;;;;24.20;19.50;;;23.00;59.80;;;;;;5077218;28;20499;-76
2021/07/22 07:25:56;;;;;;;28.67;18.53;;;23.10;60.20;;;;;;5076859;28;20452;-75
2021/07/22 07:28:23;;;;;;;21.57;17.20;;;23.30;61.50;;;;;;5076889;28;20417;-75
2021/07/22 07:30:50;;;;;;;24.67;19.27;;;23.60;61.50;;;;;;5076758;28;20456;-75
2021/07/22 07:33:16;;;;;;;22.47;20.07;;;23.80;59.60;;;;;;5076705;28;20445;-75
2021/07/22 07:35:45;;;;;;;24.87;18.40;;;24.00;59.00;;;;;;5076697;28;20802;-75
2021/07/22 07:38:11;;;;;;;22.70;16.20;;;24.10;57.90;;;;;;5076501;28;20472;-75
2021/07/22 07:40:38;;;;;;;23.33;15.97;;;24.30;57.30;;;;;;5076528;28;20464;-75
2021/07/22 07:43:05;;;;;;;23.50;16.20;;;24.50;56.70;;;;;;5077395;28;20422;-76
2021/07/22 07:45:31;;;;;;;23.57;16.80;;;24.70;56.10;;;;;;5076196;28;20456;-76
2021/07/22 07:47:58;;;;;;;21.93;16.73;;;25.00;55.40;;;;;;5076392;28;20471;-76
2021/07/22 07:50:25;;;;;;;23.37;17.50;;;25.20;54.80;;;;;;5076266;28;20487;-76
2021/07/22 07:52:53;;;;;;;19.57;16.10;;;25.50;53.80;;;;;;5076324;28;20437;-75
2021/07/22 07:55:20;;;;;;;19.70;15.17;;;25.70;53.20;;;;;;5072177;28;20498;-75
2021/07/22 07:57:48;;;;;;;21.63;16.43;;;26.00;53.40;;;;;;5076222;28;20448;-76
2021/07/22 08:00:15;;;;;;;21.50;15.17;;;26.20;52.60;;;;;;5075767;28;21036;-76
2021/07/22 08:02:47;;;;;;;30.50;17.00;;;26.30;52.50;;;;;;5075376;28;20448;-76
2021/07/22 08:05:14;;;;;;;21.93;15.10;;;26.40;52.10;;;;;;5075632;28;20798;-76
2021/07/22 08:07:40;;;;;;;16.93;15.13;;;26.50;51.30;;;;;;5076141;28;20852;-75
2021/07/22 08:10:10;;;;;;;21.50;17.20;;;26.60;51.10;;;;;;5075998;28;20444;-76
2021/07/22 08:12:36;;;;;;;21.77;17.30;;;26.70;51.30;;;;;;5076015;28;20448;-76
2021/07/22 08:15:05;;;;;;;17.17;15.43;;;26.70;51.00;;;;;;5075967;28;20445;-76
2021/07/22 08:17:31;;;;;;;19.70;16.60;;;26.70;50.20;;;;;;5075983;28;20486;-76
2021/07/22 08:20:00;;;;;;;28.07;18.70;;;26.70;51.70;;;;;;5075412;28;20476;-76
2021/07/22 08:22:26;;;;;;;20.40;18.30;;;26.70;51.20;;;;;;5075296;28;20465;-76
2021/07/22 08:24:53;;;;;;;18.13;15.60;;;26.70;52.00;;;;;;5075458;28;20444;-76
2021/07/22 08:27:27;;;;;;;18.97;16.97;;;26.80;52.20;;;;;;5075696;28;20444;-76
2021/07/22 08:29:54;;;;;;;22.00;19.30;;;26.90;51.50;;;;;;5075371;28;21042;-76
2021/07/22 08:32:21;;;;;;;21.73;19.47;;;27.10;51.10;;;;;;5075702;28;20461;-76
2021/07/22 08:34:48;;;;;;;20.43;17.83;;;27.30;51.40;;;;;;5075600;28;20448;-76
2021/07/22 08:37:15;;;;;;;25.30;18.57;;;27.50;51.40;;;;;;5075510;28;20421;-75
2021/07/22 08:39:43;;;;;;;23.17;20.70;;;27.70;51.00;;;;;;5075441;28;20472;-75
2021/07/22 08:42:11;;;;;;;23.87;19.37;;;27.90;50.30;;;;;;5075415;28;20464;-75
2021/07/22 08:44:40;;;;;;;26.33;19.77;;;28.00;49.40;;;;;;5075412;28;20456;-75
2021/07/22 08:47:09;;;;;;;22.50;20.30;;;27.90;49.10;;;;;;5075471;28;20440;-75
2021/07/22 08:49:37;;;;;;;21.07;18.90;;;28.00;50.00;;;;;;5075390;28;20440;-76
2021/07/22 08:52:08;;;;;;;20.53;18.33;;;28.00;48.90;;;;;;5075199;28;20464;-76
2021/07/22 08:54:35;;;;;;;19.37;17.47;;;28.00;49.00;;;;;;5075054;28;20903;-75
2021/07/22 08:57:03;;;;;;;16.07;14.13;;;28.10;48.60;;;;;;5075233;28;20441;-76
2021/07/22 08:59:31;;;;;;;17.40;15.70;;;28.30;49.30;;;;;;5075090;28;20484;-75
2021/07/22 09:02:01;;;;;;;16.80;15.30;;;28.50;49.20;;;;;;5074974;28;20499;-76
2021/07/22 09:04:28;;;;;;;14.73;13.23;;;28.60;47.90;;;;;;5075034;28;20445;-75
2021/07/22 09:06:55;;;;;;;15.17;13.00;;;28.60;46.90;;;;;;5074996;28;20775;-75
2021/07/22 09:09:22;;;;;;;14.00;12.30;;;28.60;45.40;;;;;;5074983;28;20425;-76
2021/07/22 09:11:56;;;;;;;12.93;11.73;;;28.60;45.30;;;;;;5074846;28;20471;-76
2021/07/22 09:14:24;;;;;;;12.00;10.90;;;28.80;45.80;;;;;;5076630;28;20493;-76
2021/07/22 09:16:51;;;;;;;16.20;14.50;;;29.00;44.90;;;;;;5075557;28;20433;-76
2021/07/22 09:19:36;;;;;;;13.10;11.73;;;29.10;43.90;;;;;;5075016;28;20469;-76
2021/07/22 09:22:04;;;;;;;12.60;11.40;;;29.30;43.60;;;;;;5074193;28;21001;-75
2021/07/22 09:24:47;;;;;;;13.80;12.40;;;29.50;43.90;;;;;;5074317;28;20934;-75
2021/07/22 09:27:32;;;;;;;13.03;11.73;;;29.80;41.60;;;;;;5074588;28;20449;-75
2021/07/22 09:29:59;;;;;;;18.30;11.50;;;29.90;41.40;;;;;;5074453;28;20421;-75
2021/07/22 09:32:30;;;;;;;13.80;12.50;;;30.00;41.50;;;;;;5074517;28;20416;-77
2021/07/22 09:35:10;;;;;;;14.33;13.03;;;30.10;42.50;;;;;;5074522;28;20425;-77
2021/07/22 09:37:41;;;;;;;17.50;15.83;;;30.30;42.00;;;;;;5073947;28;20421;-76
2021/07/22 09:40:10;;;;;;;19.27;17.30;;;30.50;42.20;;;;;;5073902;28;20460;-76
2021/07/22 09:42:47;;;;;;;17.50;16.00;;;30.60;42.10;;;;;;5074246;28;20433;-75
2021/07/22 09:45:16;;;;;;;17.03;15.43;;;30.70;41.70;;;;;;5074112;28;20421;-76
2021/07/22 09:47:43;;;;;;;17.53;15.87;;;30.90;41.70;;;;;;5073824;28;20445;-75
2021/07/22 09:50:14;;;;;;;15.97;14.57;;;30.80;41.50;;;;;;5073796;28;20421;-76
2021/07/22 09:52:41;;;;;;;16.60;14.90;;;30.90;41.20;;;;;;5074025;28;20451;-76
2021/07/22 09:55:26;;;;;;;15.80;14.30;;;31.10;39.90;;;;;;5073617;28;20773;-76
2021/07/22 09:57:55;;;;;;;12.87;11.77;;;31.30;38.20;;;;;;5073360;28;20968;-76
2021/07/22 10:00:23;;;;;;;11.57;10.47;;;31.50;38.20;;;;;;5073642;28;20581;-76
2021/07/22 10:02:52;;;;;;;10.70;9.70;;;31.50;35.40;;;;;;5073562;28;20451;-76
2021/07/22 10:05:23;;;;;;;13.03;11.83;;;31.60;37.30;;;;;;5073586;28;20494;-75
2021/07/22 10:07:52;;;;;;;12.30;11.17;;;31.40;35.70;;;;;;5073437;28;20960;-76
2021/07/22 10:10:20;;;;;;;10.87;9.93;;;31.30;36.40;;;;;;5073473;28;20433;-76
2021/07/22 10:12:52;;;;;;;10.37;9.37;;;31.20;37.60;;;;;;5073696;28;20460;-76
2021/07/22 10:15:20;;;;;;;10.80;9.67;;;31.20;37.00;;;;;;5073818;28;20428;-76
2021/07/22 10:17:48;;;;;;;11.40;10.30;;;31.20;36.70;;;;;;5073457;28;20925;-76
2021/07/22 10:20:17;;;;;;;14.37;11.30;;;31.20;36.20;;;;;;5073230;28;20483;-75
2021/07/22 10:22:46;;;;;;;13.27;11.90;;;31.20;36.90;;;;;;5073040;28;20988;-76
2021/07/22 10:25:15;;;;;;;12.40;11.37;;;31.30;37.90;;;;;;5073588;28;20440;-75
2021/07/22 10:27:45;;;;;;;12.80;11.60;;;31.50;37.80;;;;;;5073027;28;20448;-76
2021/07/22 10:30:16;;;;;;;12.70;11.60;;;32.00;38.20;;;;;;5073510;28;20433;-76
2021/07/22 10:32:50;;;;;;;11.87;10.80;;;32.60;37.10;;;;;;5073576;28;20428;-76
2021/07/22 10:35:21;;;;;;;11.73;10.73;;;33.20;36.20;;;;;;5073312;28;20434;-76
2021/07/22 10:38:08;;;;;;;12.43;11.20;;;34.00;35.70;;;;;;5073316;28;20432;-76
2021/07/22 10:40:45;;;;;;;15.27;13.87;;;34.90;35.20;;;;;;5073005;28;20510;-76
2021/07/22 10:43:41;;;;;;;15.27;13.80;;;35.60;33.50;;;;;;5073361;28;20447;-76
2021/07/22 10:46:09;;;;;;;14.27;13.00;;;36.10;30.80;;;;;;5073448;28;20428;-75
2021/07/22 10:48:37;;;;;;;17.83;15.87;;;36.30;30.10;;;;;;5073586;28;20451;-77
2021/07/22 10:51:14;;;;;;;16.63;14.30;;;36.00;29.70;;;;;;5073586;28;20522;-77
2021/07/22 10:53:53;;;;;;;15.30;13.80;;;35.30;30.10;;;;;;5073519;28;20770;-76
2021/07/22 10:56:50;;;;;;;17.00;15.27;;;34.60;31.60;;;;;;5073188;28;20432;-75
2021/07/22 10:59:17;;;;;;;16.50;14.90;;;34.50;31.20;;;;;;5066919;28;20526;-77
2021/07/22 11:02:00;;;;;;;15.40;14.10;;;34.30;30.10;;;;;;5072784;28;20984;-76
2021/07/22 11:04:43;;;;;;;15.97;14.47;;;34.00;31.90;;;;;;5073198;28;20439;-77
2021/07/22 11:07:28;;;;;;;14.80;13.50;;;34.30;33.90;;;;;;5072646;28;20807;-77
2021/07/22 11:09:58;;;;;;;18.77;17.13;;;35.00;31.60;;;;;;5073310;28;20424;-77
2021/07/22 11:12:56;;;;;;;16.50;13.87;;;35.50;31.30;;;;;;5073254;28;20499;-75
2021/07/22 11:15:59;;;;;;;16.43;14.93;;;35.80;30.00;;;;;;5073617;28;20424;-75
2021/07/22 11:18:48;;;;;;;19.20;16.27;;;35.90;30.90;;;;;;5073719;28;20428;-77
2021/07/22 11:21:18;;;;;;;20.53;16.63;;;35.50;29.90;;;;;;5072721;28;20479;-77
2021/07/22 11:23:53;;;;;;;17.57;15.90;;;35.10;31.50;;;;;;5072923;28;20933;-76
2021/07/22 11:26:23;;;;;;;21.43;19.33;;;34.50;32.50;;;;;;5073281;28;20439;-76
2021/07/22 11:28:50;;;;;;;21.17;19.13;;;33.80;33.20;;;;;;5072552;28;20794;-77
2021/07/22 11:31:17;;;;;;;20.47;18.50;;;33.10;34.30;;;;;;5072902;28;20499;-77
2021/07/22 11:33:44;;;;;;;19.80;17.80;;;32.50;35.40;;;;;;5073501;28;20961;-76
2021/07/22 11:36:13;;;;;;;21.50;19.50;;;32.70;37.00;;;;;;5072338;28;20912;-76
2021/07/22 11:38:40;;;;;;;15.77;14.30;;;33.50;33.60;;;;;;5075658;28;20440;-75
2021/07/22 11:41:14;;;;;;;14.80;13.30;;;34.30;33.60;;;;;;5076413;28;20483;-76
2021/07/22 11:43:44;;;;;;;18.63;17.03;;;35.50;31.40;;;;;;5075961;28;20933;-76
2021/07/22 11:46:12;;;;;;;16.93;15.33;;;36.80;30.10;;;;;;5076894;28;20444;-76
2021/07/22 11:48:39;;;;;;;17.93;16.30;;;37.70;28.50;;;;;;5076873;28;20498;-75
2021/07/22 11:51:07;;;;;;;19.23;17.30;;;37.90;27.20;;;;;;5076221;28;20984;-77
2021/07/22 11:53:36;;;;;;;24.33;22.07;;;37.70;28.50;;;;;;5076619;28;20432;-75
2021/07/22 11:56:14;;;;;;;22.73;20.67;;;37.10;29.40;;;;;;5076115;28;20455;-76
2021/07/22 11:58:46;;;;;;;26.90;24.37;;;36.30;30.50;;;;;;5075588;28;20428;-75
2021/07/22 12:01:12;;;;;;;25.37;23.17;;;35.60;32.00;;;;;;5075937;28;20511;-77
2021/07/22 12:03:39;;;;;;;23.80;19.73;;;34.90;32.50;;;;;;5076437;28;20447;-76
2021/07/22 12:06:06;;;;;;;22.57;20.40;;;34.60;33.40;;;;;;5076395;28;20451;-77
2021/07/22 12:08:33;;;;;;;25.47;23.20;;;34.90;35.00;;;;;;5076468;28;20448;-77
2021/07/22 12:11:01;;;;;;;21.97;19.80;;;35.30;33.20;;;;;;5076540;28;20467;-77
2021/07/22 12:13:45;;;;;;;22.87;20.77;;;35.30;33.00;;;;;;5076234;28;20444;-77
2021/07/22 12:16:13;;;;;;;22.57;20.47;;;35.10;32.50;;;;;;5076148;28;20428;-76
2021/07/22 12:18:40;;;;;;;22.83;20.73;;;35.10;32.10;;;;;;5075970;28;20440;-76
2021/07/22 12:21:18;;;;;;;23.20;20.83;;;35.20;32.70;;;;;;5075813;28;20510;-77
2021/07/22 12:23:45;;;;;;;20.30;18.47;;;35.50;31.60;;;;;;5076428;28;20432;-77
2021/07/22 12:26:16;;;;;;;19.93;17.87;;;35.60;31.40;;;;;;5075895;28;20934;-77
2021/07/22 12:28:43;;;;;;;17.77;16.17;;;35.50;31.40;;;;;;5075394;28;20433;-76
2021/07/22 12:31:19;;;;;;;19.77;17.83;;;36.00;32.30;;;;;;5075421;28;20800;-76
2021/07/22 12:33:57;;;;;;;18.57;16.87;;;36.80;30.40;;;;;;5075416;28;20446;-76
2021/07/22 12:36:24;;;;;;;18.43;16.73;;;37.60;29.10;;;;;;5075659;28;20428;-76